createdAt,value
2022-09-01T00:00:14.175Z,2.92
2022-09-01T00:02:43.353Z,3.40
2022-09-01T00:05:12.960Z,2.78
2022-09-01T00:07:40.740Z,3.25
2022-09-01T00:10:09.912Z,2.65
2022-09-01T00:12:39.166Z,2.80
2022-09-01T00:15:09.433Z,2.80
2022-09-01T00:17:36.967Z,3.13
2022-09-01T00:20:05.587Z,2.85
2022-09-01T00:22:34.007Z,3.03
2022-09-01T00:25:02.216Z,3.00
2022-09-01T00:27:30.847Z,3.00
2022-09-01T00:30:00.071Z,2.92
2022-09-01T00:32:28.365Z,2.78
2022-09-01T00:34:56.187Z,3.10
2022-09-01T00:37:23.831Z,2.90
2022-09-01T00:39:51.289Z,3.58
2022-09-01T00:42:18.892Z,3.28
2022-09-01T00:44:46.405Z,3.17
2022-09-01T00:47:15.001Z,3.20
2022-09-01T00:49:47.193Z,3.03
2022-09-01T00:52:36.114Z,3.28
2022-09-01T00:55:29.200Z,2.72
2022-09-01T00:57:59.050Z,3.00
2022-09-01T01:00:29.894Z,3.42
2022-09-01T01:02:58.303Z,2.95
2022-09-01T01:05:33.088Z,2.78
2022-09-01T01:08:03.427Z,2.83
2022-09-01T01:10:35.876Z,3.13
2022-09-01T01:13:11.194Z,3.15
2022-09-01T01:15:42.984Z,3.27
2022-09-01T01:18:12.635Z,2.97
2022-09-01T01:20:59.770Z,3.10
2022-09-01T01:23:48.797Z,2.92
2022-09-01T01:26:16.242Z,3.17
2022-09-01T01:28:44.310Z,2.95
2022-09-01T01:31:15.006Z,3.33
2022-09-01T01:33:44.590Z,3.13
2022-09-01T01:36:17.043Z,3.20
2022-09-01T01:38:47.270Z,3.10
2022-09-01T01:41:15.881Z,3.50
2022-09-01T01:43:43.646Z,3.55
2022-09-01T01:46:14.384Z,3.40
2022-09-01T01:48:43.027Z,3.05
2022-09-01T01:51:11.907Z,3.55
2022-09-01T01:53:40.762Z,3.40
2022-09-01T01:56:09.788Z,3.33
2022-09-01T01:58:37.301Z,3.40
2022-09-01T02:01:12.644Z,3.03
2022-09-01T02:03:40.747Z,3.13
2022-09-01T02:06:12.161Z,3.50
2022-09-01T02:08:41.182Z,3.58
2022-09-01T02:11:09.335Z,2.90
2022-09-01T02:13:36.822Z,3.60
2022-09-01T02:16:12.860Z,3.13
2022-09-01T02:18:48.187Z,2.90
2022-09-01T02:21:20.258Z,3.10
2022-09-01T02:23:50.527Z,3.30
2022-09-01T02:26:19.222Z,3.15
2022-09-01T02:28:55.720Z,3.20
2022-09-01T02:31:28.025Z,3.60
2022-09-01T02:33:58.259Z,3.25
2022-09-01T02:36:25.766Z,3.25
2022-09-01T02:38:56.612Z,3.13
2022-09-01T02:41:27.217Z,3.30
2022-09-01T02:43:55.189Z,3.03
2022-09-01T02:46:23.476Z,3.63
2022-09-01T02:48:53.079Z,3.05
2022-09-01T02:51:23.702Z,3.20
2022-09-01T02:53:52.811Z,3.20
2022-09-01T02:56:25.358Z,3.08
2022-09-01T02:58:54.798Z,3.22
2022-09-01T03:01:31.141Z,3.22
2022-09-01T03:04:02.400Z,3.70
2022-09-01T03:06:34.536Z,3.85
2022-09-01T03:09:06.184Z,4.05
2022-09-01T03:11:36.309Z,3.67
2022-09-01T03:14:05.212Z,3.28
2022-09-01T03:16:33.204Z,3.15
2022-09-01T03:19:03.358Z,3.75
2022-09-01T03:21:32.236Z,3.25
2022-09-01T03:24:02.009Z,3.67
2022-09-01T03:26:31.133Z,3.30
2022-09-01T03:28:59.354Z,3.35
2022-09-01T03:31:27.724Z,3.13
2022-09-01T03:34:01.210Z,3.50
2022-09-01T03:36:33.440Z,3.40
2022-09-01T03:39:01.766Z,3.35
2022-09-01T03:41:31.879Z,2.97
2022-09-01T03:43:59.643Z,3.33
2022-09-01T03:46:36.671Z,3.60
2022-09-01T03:49:08.040Z,3.63
2022-09-01T03:51:39.073Z,3.22
2022-09-01T03:54:08.425Z,3.30
2022-09-01T03:56:36.244Z,3.58
2022-09-01T03:59:03.818Z,3.63
2022-09-01T04:01:33.776Z,3.15
2022-09-01T04:04:01.727Z,3.65
2022-09-01T04:06:32.281Z,3.33
2022-09-01T04:09:03.259Z,3.40
2022-09-01T04:11:36.209Z,3.67
2022-09-01T04:14:03.813Z,3.20
2022-09-01T04:16:53.889Z,3.40
2022-09-01T04:19:26.405Z,3.28
2022-09-01T04:22:01.318Z,3.10
2022-09-01T04:24:34.933Z,3.53
2022-09-01T04:27:03.984Z,2.97
2022-09-01T04:29:32.883Z,3.10
2022-09-01T04:32:06.207Z,3.03
2022-09-01T04:34:40.333Z,3.33
2022-09-01T04:37:18.214Z,2.97
2022-09-01T04:42:29.285Z,2.83
2022-09-01T04:45:10.045Z,3.47
2022-09-01T04:47:42.032Z,3.40
2022-09-01T04:50:17.537Z,3.88
2022-09-01T04:53:06.833Z,3.22
2022-09-01T04:55:49.694Z,3.17
2022-09-01T04:58:19.022Z,3.40
2022-09-01T05:00:49.609Z,3.08
2022-09-01T05:03:24.405Z,3.20
2022-09-01T05:06:01.229Z,3.17
2022-09-01T05:08:32.743Z,3.10
2022-09-01T05:11:07.544Z,3.42
2022-09-01T05:13:40.337Z,2.95
2022-09-01T05:16:15.209Z,3.42
2022-09-01T05:18:47.787Z,3.33
2022-09-01T05:21:21.930Z,3.10
2022-09-01T05:23:51.624Z,3.63
2022-09-01T05:26:22.673Z,3.13
2022-09-01T05:28:55.382Z,3.40
2022-09-01T05:31:25.140Z,3.38
2022-09-01T05:33:52.559Z,3.40
2022-09-01T05:36:23.328Z,3.20
2022-09-01T05:38:52.618Z,4.10
2022-09-01T05:41:21.039Z,3.70
2022-09-01T05:43:57.743Z,3.40
2022-09-01T05:46:28.546Z,3.95
2022-09-01T05:48:57.656Z,3.78
2022-09-01T05:51:43.896Z,3.90
2022-09-01T05:54:14.363Z,4.00
2022-09-01T05:56:44.248Z,3.90
2022-09-01T05:59:24.408Z,3.50
2022-09-01T06:01:56.788Z,4.20
2022-09-01T06:04:25.919Z,3.75
2022-09-01T06:07:05.835Z,3.58
2022-09-01T06:09:45.580Z,3.40
2022-09-01T06:12:18.437Z,3.65
2022-09-01T06:14:48.406Z,3.65
2022-09-01T06:17:25.148Z,3.58
2022-09-01T06:19:58.017Z,3.88
2022-09-01T06:22:28.428Z,3.28
2022-09-01T06:25:02.449Z,3.45
2022-09-01T06:27:38.796Z,3.22
2022-09-01T06:30:15.022Z,3.25
2022-09-01T06:32:49.764Z,3.42
2022-09-01T06:35:18.097Z,3.50
2022-09-01T06:37:47.172Z,3.55
2022-09-01T06:40:29.172Z,3.42
2022-09-01T06:42:58.162Z,3.53
2022-09-01T06:45:26.920Z,3.35
2022-09-01T06:47:59.464Z,3.00
2022-09-01T06:53:42.881Z,3.17
2022-09-01T06:56:10.134Z,2.97
2022-09-01T06:58:39.305Z,1.80
2022-09-01T07:01:15.603Z,2.10
2022-09-01T07:03:44.701Z,1.95
2022-09-01T07:10:05.825Z,1.90
2022-09-01T07:13:05.500Z,2.33
2022-09-01T07:18:27.857Z,3.65
2022-09-01T07:21:05.449Z,3.85
2022-09-01T07:26:26.357Z,2.30
2022-09-01T07:31:52.151Z,2.13
2022-09-01T07:34:40.258Z,1.67
2022-09-01T07:43:16.561Z,1.38
2022-09-01T07:49:29.564Z,2.20
2022-09-01T07:51:53.187Z,1.92
2022-09-01T07:54:24.376Z,2.05
2022-09-01T07:56:54.725Z,1.48
2022-09-01T07:59:23.037Z,1.40
2022-09-01T08:01:58.972Z,1.70
2022-09-01T08:04:26.668Z,1.20
2022-09-01T08:06:56.755Z,1.30
2022-09-01T08:09:37.378Z,1.50
2022-09-01T08:12:08.712Z,1.38
2022-09-01T08:17:51.474Z,1.55
2022-09-01T08:20:23.281Z,1.48
2022-09-01T08:22:53.342Z,1.20
2022-09-01T08:25:42.482Z,1.20
2022-09-01T08:28:10.672Z,1.30
2022-09-01T08:30:52.093Z,1.00
2022-09-01T08:33:22.667Z,1.15
2022-09-01T08:35:50.536Z,2.95
2022-09-01T08:38:19.441Z,1.38
2022-09-01T08:40:56.827Z,1.40
2022-09-01T08:44:08.041Z,1.10
2022-09-01T08:46:40.600Z,1.08
2022-09-01T08:49:29.888Z,1.25
2022-09-01T08:52:25.495Z,1.50
2022-09-01T08:55:27.407Z,0.98
2022-09-01T08:57:59.869Z,0.98
2022-09-01T09:00:33.347Z,1.25
2022-09-01T09:03:41.618Z,1.25
2022-09-01T09:06:22.391Z,1.25
2022-09-01T09:08:54.276Z,0.93
2022-09-01T09:11:46.084Z,0.88
2022-09-01T09:14:19.718Z,1.05
2022-09-01T09:16:54.470Z,1.52
2022-09-01T09:19:28.568Z,1.02
2022-09-01T09:22:06.116Z,1.15
2022-09-01T09:24:48.393Z,0.77
2022-09-01T09:27:23.123Z,1.23
2022-09-01T09:29:54.471Z,1.10
2022-09-01T09:32:39.352Z,1.30
2022-09-01T09:35:26.969Z,0.90
2022-09-01T09:37:56.239Z,1.17
2022-09-01T09:40:26.795Z,0.93
2022-09-01T09:42:54.191Z,0.82
2022-09-01T09:45:34.876Z,1.25
2022-09-01T09:48:30.139Z,0.98
2022-09-01T09:51:17.878Z,1.00
2022-09-01T09:53:45.406Z,1.25
2022-09-01T09:56:20.278Z,1.00
2022-09-01T09:58:50.390Z,1.17
2022-09-01T10:01:24.344Z,1.08
2022-09-01T10:03:58.198Z,1.13
2022-09-01T10:06:37.907Z,0.82
2022-09-01T10:09:08.547Z,0.88
2022-09-01T10:11:41.419Z,1.30
2022-09-01T10:14:53.050Z,1.00
2022-09-01T10:17:26.114Z,0.90
2022-09-01T10:20:08.186Z,0.90
2022-09-01T10:22:40.067Z,1.10
2022-09-01T10:25:11.735Z,0.90
2022-09-01T10:27:44.302Z,1.10
2022-09-01T10:30:22.035Z,0.85
2022-09-01T10:33:20.972Z,1.02
2022-09-01T10:35:54.002Z,0.90
2022-09-01T10:38:29.616Z,1.02
2022-09-01T10:41:08.867Z,1.08
2022-09-01T10:43:48.106Z,0.90
2022-09-01T10:46:26.226Z,1.10
2022-09-01T10:48:56.716Z,1.08
2022-09-01T10:54:06.975Z,1.20
2022-09-01T10:56:52.123Z,0.85
2022-09-01T10:59:37.287Z,1.30
2022-09-01T11:02:25.916Z,1.40
2022-09-01T11:05:00.304Z,1.00
2022-09-01T11:07:57.998Z,1.85
2022-09-01T11:10:32.421Z,1.30
2022-09-01T11:13:26.362Z,0.95
2022-09-01T11:15:55.685Z,0.90
2022-09-01T11:18:33.575Z,1.33
2022-09-01T11:21:27.914Z,1.15
2022-09-01T11:24:34.931Z,1.20
2022-09-01T11:27:03.825Z,1.27
2022-09-01T11:30:08.517Z,0.90
2022-09-01T11:32:46.981Z,1.13
2022-09-01T11:35:19.904Z,0.80
2022-09-01T11:37:55.226Z,0.70
2022-09-01T11:40:27.143Z,0.73
2022-09-01T11:43:19.311Z,1.02
2022-09-01T11:46:13.093Z,0.90
2022-09-01T11:48:47.157Z,1.08
2022-09-01T11:51:21.593Z,0.88
2022-09-01T11:53:52.044Z,1.38
2022-09-01T11:56:28.465Z,1.33
2022-09-01T11:58:56.264Z,1.02
2022-09-01T12:01:40.269Z,0.90
2022-09-01T12:04:33.257Z,1.33
2022-09-01T12:07:08.080Z,1.05
2022-09-01T12:09:43.479Z,1.30
2022-09-01T12:12:36.111Z,0.90
2022-09-01T12:15:17.076Z,1.20
2022-09-01T12:18:08.679Z,1.00
2022-09-01T12:20:41.219Z,1.20
2022-09-01T12:23:24.368Z,0.75
2022-09-01T12:26:03.131Z,0.77
2022-09-01T12:28:44.385Z,0.88
2022-09-01T12:31:17.477Z,1.00
2022-09-01T12:33:45.878Z,1.02
2022-09-01T12:36:15.166Z,0.73
2022-09-01T12:38:42.903Z,0.88
2022-09-01T12:41:25.443Z,1.00
2022-09-01T12:43:54.709Z,1.10
2022-09-01T12:46:44.187Z,1.20
2022-09-01T12:49:20.399Z,1.05
2022-09-01T12:51:48.633Z,1.20
2022-09-01T12:54:21.312Z,1.05
2022-09-01T12:56:51.317Z,0.70
2022-09-01T12:59:26.247Z,0.88
2022-09-01T13:02:37.002Z,0.80
2022-09-01T13:05:42.129Z,1.42
2022-09-01T13:08:12.737Z,0.88
2022-09-01T13:10:43.636Z,1.00
2022-09-01T13:13:12.867Z,1.00
2022-09-01T13:15:48.243Z,0.70
2022-09-01T13:18:18.343Z,0.95
2022-09-01T13:20:46.675Z,0.90
2022-09-01T13:23:14.841Z,0.80
2022-09-01T13:25:44.440Z,1.05
2022-09-01T13:28:12.962Z,0.70
2022-09-01T13:30:41.664Z,0.90
2022-09-01T13:33:19.896Z,0.90
2022-09-01T13:35:49.452Z,0.90
2022-09-01T13:38:18.077Z,0.90
2022-09-01T13:40:47.705Z,0.90
2022-09-01T13:43:17.125Z,1.08
2022-09-01T13:45:45.098Z,0.90
2022-09-01T13:48:15.821Z,1.27
2022-09-01T13:53:40.210Z,2.17
2022-09-01T13:56:07.654Z,1.02
2022-09-01T13:58:35.111Z,1.23
2022-09-01T14:01:02.777Z,1.38
2022-09-01T14:03:32.123Z,1.25
2022-09-01T14:05:59.917Z,1.27
2022-09-01T14:08:27.471Z,1.20
2022-09-01T14:10:54.926Z,1.40
2022-09-01T14:13:24.612Z,1.08
2022-09-01T14:15:53.677Z,0.90
2022-09-01T14:18:22.421Z,0.70
2022-09-01T14:20:51.852Z,0.90
2022-09-01T14:23:20.137Z,0.80
2022-09-01T14:25:49.855Z,0.88
2022-09-01T14:28:20.549Z,1.00
2022-09-01T14:33:18.915Z,1.08
2022-09-01T14:35:48.215Z,1.10
2022-09-01T14:38:16.594Z,1.20
2022-09-01T14:40:48.338Z,1.10
2022-09-01T14:43:16.062Z,1.00
2022-09-01T14:45:48.168Z,1.23
2022-09-01T14:48:17.743Z,1.00
2022-09-01T14:50:50.927Z,1.30
2022-09-01T14:53:19.498Z,1.00
2022-09-01T14:55:47.098Z,1.05
2022-09-01T14:58:14.583Z,0.90
2022-09-01T15:00:42.257Z,1.00
2022-09-01T15:03:09.857Z,1.00
2022-09-01T15:05:39.740Z,1.30
2022-09-01T15:08:13.045Z,1.20
2022-09-01T15:10:43.602Z,1.50
2022-09-01T15:13:11.337Z,1.17
2022-09-01T15:15:39.128Z,1.40
2022-09-01T15:18:06.982Z,1.50
2022-09-01T15:20:45.454Z,1.40
2022-09-01T15:23:18.488Z,1.88
2022-09-01T15:25:47.047Z,1.30
2022-09-01T15:28:15.256Z,1.90
2022-09-01T15:30:44.641Z,1.60
2022-09-01T15:33:15.952Z,1.75
2022-09-01T15:35:45.483Z,1.27
2022-09-01T15:38:17.947Z,1.38
2022-09-01T15:40:57.060Z,1.65
2022-09-01T15:43:27.442Z,1.30
2022-09-01T15:45:58.134Z,1.70
2022-09-01T15:48:27.807Z,1.60
2022-09-01T15:51:18.240Z,1.70
2022-09-01T15:53:49.479Z,1.48
2022-09-01T15:56:18.624Z,1.30
2022-09-01T15:59:01.280Z,1.65
2022-09-01T16:01:35.670Z,1.80
2022-09-01T16:04:04.772Z,1.95
2022-09-01T16:06:33.652Z,2.05
2022-09-01T16:09:01.149Z,2.17
2022-09-01T16:11:28.632Z,2.00
2022-09-01T16:13:56.944Z,1.60
2022-09-01T16:16:59.613Z,1.92
2022-09-01T16:19:32.577Z,1.60
2022-09-01T16:22:06.472Z,1.70
2022-09-01T16:24:49.631Z,1.90
2022-09-01T16:27:20.483Z,2.42
2022-09-01T16:30:05.255Z,2.20
2022-09-01T16:32:33.686Z,2.47
2022-09-01T16:35:04.237Z,2.05
2022-09-01T16:37:39.834Z,2.50
2022-09-01T16:40:43.241Z,2.42
2022-09-01T16:43:19.961Z,2.03
2022-09-01T16:46:23.380Z,2.17
2022-09-01T16:49:03.516Z,2.05
2022-09-01T16:52:15.362Z,2.67
2022-09-01T16:55:18.410Z,2.30
2022-09-01T16:58:22.446Z,2.03
2022-09-01T17:01:30.272Z,2.20
2022-09-01T17:04:28.141Z,2.42
2022-09-01T17:07:14.207Z,1.80
2022-09-01T17:09:51.586Z,2.17
2022-09-01T17:12:27.607Z,2.38
2022-09-01T17:15:09.090Z,2.33
2022-09-01T17:17:50.932Z,2.30
2022-09-01T17:20:23.882Z,2.10
2022-09-01T17:22:55.023Z,2.15
2022-09-01T17:25:37.198Z,2.00
2022-09-01T17:28:13.957Z,2.42
2022-09-01T17:31:00.705Z,2.20
2022-09-01T17:33:47.827Z,3.33
2022-09-01T17:36:24.079Z,1.60
2022-09-01T17:38:57.687Z,2.25
2022-09-01T17:41:57.177Z,2.50
2022-09-01T17:44:41.140Z,2.17
2022-09-01T17:47:54.847Z,2.75
2022-09-01T17:50:30.888Z,2.40
2022-09-01T17:53:10.932Z,1.90
2022-09-01T17:56:01.884Z,2.20
2022-09-01T17:58:52.684Z,2.10
2022-09-01T18:01:38.262Z,2.30
2022-09-01T18:04:24.842Z,1.70
2022-09-01T18:07:00.364Z,2.67
2022-09-01T18:09:30.215Z,2.55
2022-09-01T18:12:10.229Z,2.00
2022-09-01T18:15:04.927Z,2.17
2022-09-01T18:17:40.298Z,2.22
2022-09-01T18:20:31.279Z,2.60
2022-09-01T18:23:08.420Z,2.33
2022-09-01T18:25:40.482Z,2.47
2022-09-01T18:28:09.467Z,2.15
2022-09-01T18:30:53.349Z,2.00
2022-09-01T18:33:42.687Z,2.05
2022-09-01T18:36:38.594Z,1.85
2022-09-01T18:39:05.923Z,2.40
2022-09-01T18:41:55.669Z,2.17
2022-09-01T18:44:47.489Z,2.05
2022-09-01T18:47:18.218Z,2.20
2022-09-01T18:49:57.730Z,2.15
2022-09-01T18:52:57.577Z,2.40
2022-09-01T18:55:38.504Z,2.10
2022-09-01T18:58:10.587Z,2.50
2022-09-01T19:00:55.747Z,2.10
2022-09-01T19:03:32.571Z,2.25
2022-09-01T19:06:26.821Z,2.60
2022-09-01T19:08:57.499Z,2.17
2022-09-01T19:11:40.199Z,2.08
2022-09-01T19:17:10.626Z,2.15
2022-09-01T19:19:54.469Z,2.30
2022-09-01T19:22:33.897Z,1.65
2022-09-01T19:25:26.421Z,2.08
2022-09-01T19:28:13.690Z,1.70
2022-09-01T19:30:50.224Z,2.33
2022-09-01T19:33:25.179Z,2.10
2022-09-01T19:35:58.077Z,2.13
2022-09-01T19:38:30.111Z,1.90
2022-09-01T19:41:09.346Z,1.50
2022-09-01T19:43:43.388Z,1.90
2022-09-01T19:46:23.652Z,2.38
2022-09-01T19:49:07.078Z,2.10
2022-09-01T19:51:46.039Z,1.90
2022-09-01T19:54:26.975Z,1.95
2022-09-01T19:57:16.972Z,2.10
2022-09-01T19:59:44.759Z,1.83
2022-09-01T20:02:25.178Z,2.00
2022-09-01T20:05:16.216Z,2.15
2022-09-01T20:07:52.862Z,2.00
2022-09-01T20:10:37.125Z,1.85
2022-09-01T20:13:27.332Z,1.83
2022-09-01T20:16:05.946Z,2.25
2022-09-01T20:18:44.183Z,1.70
2022-09-01T20:21:20.866Z,1.83
2022-09-01T20:24:02.082Z,2.10
2022-09-01T20:27:13.842Z,1.90
2022-09-01T20:30:00.181Z,1.73
2022-09-01T20:32:59.537Z,2.17
2022-09-01T20:35:42.020Z,1.52
2022-09-01T20:38:44.177Z,1.85
2022-09-01T20:41:20.435Z,1.67
2022-09-01T20:43:51.784Z,1.77
2022-09-01T20:46:21.022Z,1.90
2022-09-01T20:48:48.615Z,1.80
2022-09-01T20:51:39.805Z,1.83
2022-09-01T20:54:33.842Z,1.70
2022-09-01T20:57:46.778Z,1.90
2022-09-01T21:00:25.792Z,1.77
2022-09-01T21:03:10.016Z,1.90
2022-09-01T21:08:33.187Z,2.03
2022-09-01T21:11:26.286Z,2.13
2022-09-01T21:13:58.482Z,1.63
2022-09-01T21:17:03.848Z,1.70
2022-09-01T21:19:43.416Z,1.95
2022-09-01T21:22:21.147Z,1.65
2022-09-01T21:24:50.131Z,1.60
2022-09-01T21:27:24.488Z,1.48
2022-09-01T21:29:59.703Z,2.38
2022-09-01T21:32:29.690Z,2.40
2022-09-01T21:34:58.257Z,1.80
2022-09-01T21:37:27.638Z,2.75
2022-09-01T21:39:56.521Z,2.00
2022-09-01T21:42:36.264Z,2.15
2022-09-01T21:45:05.988Z,2.35
2022-09-01T21:47:33.949Z,1.75
2022-09-01T21:50:01.813Z,1.80
2022-09-01T21:52:29.251Z,1.70
2022-09-01T21:54:56.735Z,2.08
2022-09-01T21:57:24.296Z,2.03
2022-09-01T21:59:51.891Z,1.90
2022-09-01T22:02:20.464Z,2.08
2022-09-01T22:04:48.925Z,1.95
2022-09-01T22:07:17.035Z,2.10
2022-09-01T22:09:46.322Z,2.08
2022-09-01T22:12:14.641Z,1.90
2022-09-01T22:14:42.079Z,2.10
2022-09-01T22:17:09.635Z,2.05
2022-09-01T22:19:37.255Z,2.30
2022-09-01T22:22:05.504Z,2.00
2022-09-01T22:24:33.153Z,2.58
2022-09-01T22:27:00.878Z,1.77
2022-09-01T22:29:28.371Z,1.92
2022-09-01T22:31:55.739Z,2.00
2022-09-01T22:34:23.299Z,2.08
2022-09-01T22:36:50.717Z,2.10
2022-09-01T22:39:18.998Z,2.00
2022-09-01T22:41:47.466Z,2.10
2022-09-01T22:44:14.852Z,2.05
2022-09-01T22:46:42.403Z,2.28
2022-09-01T22:49:10.639Z,2.13
2022-09-01T22:51:40.973Z,2.33
2022-09-01T22:54:09.548Z,2.05
2022-09-01T22:56:39.572Z,2.30
2022-09-01T22:59:10.738Z,2.17
2022-09-01T23:01:42.467Z,2.30
2022-09-01T23:04:12.576Z,2.00
2022-09-01T23:06:43.990Z,1.92
2022-09-01T23:09:12.144Z,2.22
2022-09-01T23:11:39.632Z,1.98
2022-09-01T23:14:07.068Z,2.33
2022-09-01T23:16:35.382Z,2.50
2022-09-01T23:19:03.719Z,2.22
2022-09-01T23:21:34.192Z,2.35
2022-09-01T23:24:02.114Z,2.40
2022-09-01T23:26:31.215Z,2.13
2022-09-01T23:28:59.693Z,2.35
2022-09-01T23:31:31.895Z,1.98
2022-09-01T23:33:59.339Z,2.50
2022-09-01T23:36:28.934Z,2.60
2022-09-01T23:38:56.999Z,2.08
2022-09-01T23:41:31.178Z,2.20
2022-09-01T23:44:01.548Z,2.40
2022-09-01T23:46:32.061Z,2.42
2022-09-01T23:48:59.728Z,2.35
2022-09-01T23:51:27.167Z,2.47
2022-09-01T23:53:54.771Z,2.17
2022-09-01T23:56:25.033Z,2.50
2022-09-01T23:58:52.798Z,2.10
